Time;durP1;ratioP1;P1;durP2;ratioP2;P2;SDS_P1;SDS_P2;PMS_P1;PMS_P2;Temp;Humidity;BMP_temperature;BMP_pressure;BME280_temperature;BME280_humidity;BME280_pressure;Samples;Min_cycle;Max_cycle;Signal;HPM_P1;HPM_P2
2022/11/15 00:01:17;;;;;;;26.27;23.13;;;;;;;-148.82;100.00;60434.72;5009008;28;20227;-69
2022/11/15 00:03:45;;;;;;;22.53;20.17;;;;;;;-148.82;100.00;60434.72;5013618;28;20641;-69
2022/11/15 00:06:14;;;;;;;21.57;19.47;;;;;;;-148.82;100.00;60434.72;4965781;28;20324;-68
2022/11/15 00:08:42;;;;;;;21.10;18.97;;;;;;;-148.82;100.00;60434.72;5011241;28;20203;-69
2022/11/15 00:11:12;;;;;;;19.53;17.53;;;;;;;-148.82;100.00;60434.72;5008857;28;20246;-69
2022/11/15 00:13:41;;;;;;;20.87;18.60;;;;;;;-148.82;100.00;60434.72;5012347;28;20420;-69
2022/11/15 00:16:10;;;;;;;21.10;18.23;;;;;;;-148.82;100.00;60434.72;4984613;28;20222;-70
2022/11/15 00:18:40;;;;;;;21.53;19.33;;;;;;;-148.82;100.00;60434.72;5011178;28;20207;-68
2022/11/15 00:21:15;;;;;;;19.03;17.23;;;;;;;-148.82;100.00;60434.72;5008505;28;20366;-70
2022/11/15 00:23:43;;;;;;;19.47;17.50;;;;;;;-148.82;100.00;60434.72;4966194;28;20601;-69
2022/11/15 00:26:13;;;;;;;18.93;16.90;;;;;;;-148.82;100.00;60434.72;5008126;28;20232;-69
2022/11/15 00:28:42;;;;;;;18.93;17.03;;;;;;;-148.82;100.00;60434.72;5011914;28;20215;-69
2022/11/15 00:31:12;;;;;;;18.80;17.00;;;;;;;-148.82;100.00;60434.72;4984627;28;20245;-69
2022/11/15 00:33:44;;;;;;;17.97;16.37;;;;;;;-148.82;100.00;60434.72;5011978;28;20203;-69
2022/11/15 00:36:12;;;;;;;17.40;15.70;;;;;;;-148.82;100.00;60434.72;5009376;28;20210;-69
2022/11/15 00:38:41;;;;;;;18.00;16.20;;;;;;;-148.82;100.00;60434.72;4964975;28;20218;-68
2022/11/15 00:41:09;;;;;;;17.70;15.60;;;;;;;-148.82;100.00;60434.72;5008520;28;20227;-68
2022/11/15 00:43:39;;;;;;;17.67;15.77;;;;;;;-148.82;100.00;60434.72;5010690;28;20223;-69
2022/11/15 00:46:09;;;;;;;17.63;15.83;;;;;;;-148.82;100.00;60434.72;4984284;28;20746;-69
2022/11/15 00:48:37;;;;;;;17.40;15.17;;;;;;;-148.82;100.00;60434.72;5010898;28;20585;-70
2022/11/15 00:51:07;;;;;;;19.23;17.40;;;;;;;-148.82;100.00;60434.72;5007560;28;20234;-69
2022/11/15 00:53:35;;;;;;;18.77;16.83;;;;;;;-148.82;100.00;60434.72;4984322;28;20222;-68
2022/11/15 00:56:04;;;;;;;19.63;17.67;;;;;;;-148.82;100.00;60434.72;4962929;28;20242;-68
2022/11/15 00:58:32;;;;;;;21.53;18.57;;;;;;;-148.82;100.00;60434.72;5010926;28;20207;-69
2022/11/15 01:01:07;;;;;;;21.03;18.17;;;;;;;-148.82;100.00;60434.72;4981935;28;20448;-69
2022/11/15 01:03:36;;;;;;;19.10;17.17;;;;;;;-148.82;100.00;60434.72;5011227;28;20207;-69
2022/11/15 01:06:05;;;;;;;18.97;17.13;;;;;;;-148.82;100.00;60434.72;5008064;28;20231;-69
2022/11/15 01:08:34;;;;;;;20.23;15.90;;;;;;;-148.82;100.00;60434.72;5011478;28;20703;-68
2022/11/15 01:11:03;;;;;;;17.83;15.60;;;;;;;-148.82;100.00;60434.72;4963009;28;20226;-69
2022/11/15 01:13:32;;;;;;;18.73;16.83;;;;;;;-148.82;100.00;60434.72;5010748;28;20207;-69
2022/11/15 01:16:06;;;;;;;18.80;16.83;;;;;;;-148.82;100.00;60434.72;4982338;28;20207;-68
2022/11/15 01:18:34;;;;;;;19.17;17.10;;;;;;;-148.82;100.00;60434.72;5010971;28;21327;-67
2022/11/15 01:21:06;;;;;;;19.57;17.57;;;;;;;-148.82;100.00;60434.72;5006958;28;20449;-68
2022/11/15 01:23:36;;;;;;;16.77;15.07;;;;;;;-148.82;100.00;60434.72;5009153;28;20215;-68
2022/11/15 01:29:52;;;;;;;15.30;13.90;;;;;;;-148.82;100.00;60434.72;4952965;28;20263;-70
2022/11/15 01:32:21;;;;;;;16.97;15.40;;;;;;;-148.82;100.00;60434.72;5007400;28;20254;-69
2022/11/15 01:34:49;;;;;;;16.73;15.07;;;;;;;-148.82;100.00;60434.72;5008776;28;21467;-67
2022/11/15 01:37:17;;;;;;;20.53;17.50;;;;;;;-148.82;100.00;60434.72;4985377;28;20466;-67
2022/11/15 01:39:47;;;;;;;30.20;18.07;;;;;;;-148.82;100.00;60434.72;5007007;28;20223;-69
2022/11/15 01:42:16;;;;;;;20.70;16.80;;;;;;;-148.82;100.00;60434.72;5010642;28;20495;-69
2022/11/15 01:44:48;;;;;;;33.00;17.40;;;;;;;-148.82;100.00;60434.72;4959668;28;20502;-67
2022/11/15 01:47:18;;;;;;;17.27;15.20;;;;;;;-148.82;100.00;60434.72;5008382;28;20203;-69
2022/11/15 01:49:52;;;;;;;29.77;16.87;;;;;;;-148.82;100.00;60434.72;5008616;28;20231;-69
2022/11/15 01:52:22;;;;;;;33.27;17.83;;;;;;;-148.82;100.00;60434.72;4988026;28;20212;-70
2022/11/15 01:54:56;;;;;;;42.13;23.37;;;;;;;-148.82;100.00;60434.72;5007725;28;20544;-69
2022/11/15 01:57:37;;;;;;;37.83;23.30;;;;;;;-148.82;100.00;60434.72;5007628;28;20333;-67
2022/11/15 02:00:06;;;;;;;28.67;20.10;;;;;;;-148.82;100.00;60434.72;4962468;28;20414;-69
2022/11/15 02:02:35;;;;;;;19.97;16.70;;;;;;;-148.82;100.00;60434.72;5007749;28;21300;-69
2022/11/15 02:05:04;;;;;;;21.97;18.53;;;;;;;-148.82;100.00;60434.72;5007494;28;20563;-69
2022/11/15 02:07:33;;;;;;;16.37;14.73;;;;;;;-148.82;100.00;60434.72;5007867;28;20805;-69
2022/11/15 02:10:08;;;;;;;32.33;16.23;;;;;;;-148.82;100.00;60434.72;4985999;28;20327;-69
2022/11/15 02:12:36;;;;;;;14.57;13.13;;;;;;;-148.82;100.00;60434.72;5008683;28;20538;-68
2022/11/15 02:15:06;;;;;;;17.27;14.13;;;;;;;-148.82;100.00;60434.72;4964070;28;20215;-68
2022/11/15 02:17:59;;;;;;;13.87;12.33;;;;;;;-148.82;100.00;60434.72;5008582;28;20749;-67
2022/11/15 02:20:47;;;;;;;28.93;14.03;;;;;;;-148.82;100.00;60434.72;5009177;28;20227;-68
2022/11/15 02:24:01;;;;;;;12.67;11.70;;;;;;;-148.82;100.00;60434.72;5008620;28;20203;-68
2022/11/15 02:27:02;;;;;;;13.60;12.30;;;;;;;-148.82;100.00;60434.72;5009189;28;20350;-68
2022/11/15 02:29:40;;;;;;;12.87;11.87;;;;;;;-148.82;100.00;60434.72;4961397;28;20246;-67
2022/11/15 02:32:13;;;;;;;12.40;11.40;;;;;;;-148.82;100.00;60434.72;4958904;28;20450;-67
2022/11/15 02:34:49;;;;;;;12.60;11.50;;;;;;;-148.82;100.00;60434.72;4995542;28;20426;-66
2022/11/15 02:37:24;;;;;;;14.40;13.00;;;;;;;-148.82;100.00;60434.72;5006834;28;20218;-67
2022/11/15 02:40:00;;;;;;;13.93;12.53;;;;;;;-148.82;100.00;60434.72;4986960;28;20231;-69
2022/11/15 02:45:23;;;;;;;44.83;15.53;;;;;;;-148.82;100.00;60434.72;4976614;28;20688;-68
2022/11/15 02:47:58;;;;;;;13.80;12.60;;;;;;;-148.82;100.00;60434.72;5006522;28;20210;-69
2022/11/15 02:50:28;;;;;;;13.03;11.87;;;;;;;-148.82;100.00;60434.72;5007209;28;20233;-69
2022/11/15 02:52:56;;;;;;;14.53;13.13;;;;;;;-148.82;100.00;60434.72;5009803;28;20211;-69
2022/11/15 02:55:30;;;;;;;15.70;14.33;;;;;;;-148.82;100.00;60434.72;4986907;28;20603;-68
2022/11/15 02:58:13;;;;;;;15.37;13.83;;;;;;;-148.82;100.00;60434.72;5009731;28;20203;-69
2022/11/15 03:00:48;;;;;;;12.50;11.50;;;;;;;-148.82;100.00;60434.72;4979841;28;20542;-68
2022/11/15 03:03:31;;;;;;;13.40;12.30;;;;;;;-148.82;100.00;60434.72;5008312;28;20547;-68
2022/11/15 03:06:06;;;;;;;15.00;13.60;;;;;;;-148.82;100.00;60434.72;5006686;28;20226;-68
2022/11/15 03:08:41;;;;;;;14.53;13.33;;;;;;;-148.82;100.00;60434.72;5009259;28;20211;-68
2022/11/15 03:11:11;;;;;;;12.77;11.57;;;;;;;-148.82;100.00;60434.72;4985170;28;21590;-68
2022/11/15 03:13:44;;;;;;;13.33;12.23;;;;;;;-148.82;100.00;60434.72;5007456;28;20238;-68
2022/11/15 03:16:16;;;;;;;12.33;11.33;;;;;;;-148.82;100.00;60434.72;5013235;28;20682;-67
2022/11/15 03:18:48;;;;;;;13.40;12.30;;;;;;;-148.82;100.00;60434.72;4970771;28;20233;-68
2022/11/15 03:21:18;;;;;;;13.93;12.67;;;;;;;-148.82;100.00;60434.72;5013886;28;20828;-67
2022/11/15 03:23:48;;;;;;;14.30;13.00;;;;;;;-148.82;100.00;60434.72;5010093;28;20208;-68
2022/11/15 03:26:17;;;;;;;13.37;12.27;;;;;;;-148.82;100.00;60434.72;4989743;28;20705;-68
2022/11/15 03:28:51;;;;;;;12.87;11.77;;;;;;;-148.82;100.00;60434.72;5009487;28;20199;-68
2022/11/15 03:34:12;;;;;;;13.03;11.87;;;;;;;-148.82;100.00;60434.72;4993413;28;21874;-68
2022/11/15 03:36:40;;;;;;;12.17;11.10;;;;;;;-148.82;100.00;60434.72;4932202;28;20219;-68
2022/11/15 03:39:09;;;;;;;13.00;11.70;;;;;;;-148.82;100.00;60434.72;5009393;28;20422;-67
2022/11/15 03:41:41;;;;;;;12.33;11.20;;;;;;;-148.82;100.00;60434.72;4987674;28;20278;-68
2022/11/15 03:44:15;;;;;;;13.00;11.83;;;;;;;-148.82;100.00;60434.72;5009690;28;20202;-67
2022/11/15 03:46:48;;;;;;;12.67;11.40;;;;;;;-148.82;100.00;60434.72;4987137;28;20492;-67
2022/11/15 03:49:21;;;;;;;14.20;12.83;;;;;;;-148.82;100.00;60434.72;5010169;28;20276;-67
2022/11/15 03:51:49;;;;;;;13.93;12.70;;;;;;;-148.82;100.00;60434.72;4960777;28;20203;-67
2022/11/15 03:54:18;;;;;;;12.03;11.03;;;;;;;-148.82;100.00;60434.72;5008928;28;20218;-67
2022/11/15 03:56:46;;;;;;;12.43;11.33;;;;;;;-148.82;100.00;60434.72;5011418;28;20210;-68
2022/11/15 03:59:15;;;;;;;12.97;11.70;;;;;;;-148.82;100.00;60434.72;4990340;28;21594;-68
2022/11/15 04:01:43;;;;;;;12.73;11.63;;;;;;;-148.82;100.00;60434.72;5011647;28;20217;-68
2022/11/15 04:04:11;;;;;;;12.73;11.63;;;;;;;-148.82;100.00;60434.72;5009488;28;20230;-67
2022/11/15 04:06:40;;;;;;;12.37;11.37;;;;;;;-148.82;100.00;60434.72;4963216;28;21710;-68
2022/11/15 04:09:09;;;;;;;13.33;11.87;;;;;;;-148.82;100.00;60434.72;4982289;28;20210;-70
2022/11/15 04:11:37;;;;;;;12.30;11.30;;;;;;;-148.82;100.00;60434.72;5007361;28;20223;-69
2022/11/15 04:14:05;;;;;;;21.57;12.23;;;;;;;-148.82;100.00;60434.72;4989075;28;20215;-69
2022/11/15 04:16:33;;;;;;;12.27;11.13;;;;;;;-148.82;100.00;60434.72;5008780;28;21104;-69
2022/11/15 04:24:48;;;;;;;13.87;11.37;;;;;;;-148.82;100.00;60434.72;4908675;28;22446;-69
2022/11/15 04:27:17;;;;;;;12.57;11.27;;;;;;;-148.82;100.00;60434.72;4908634;28;20670;-67
2022/11/15 04:29:45;;;;;;;12.23;11.13;;;;;;;-148.82;100.00;60434.72;4895157;28;20230;-67
2022/11/15 04:32:13;;;;;;;13.97;12.20;;;;;;;-148.82;100.00;60434.72;4912763;28;20217;-67
2022/11/15 04:34:42;;;;;;;12.33;11.27;;;;;;;-148.82;100.00;60434.72;4910646;28;20206;-69
2022/11/15 04:37:15;;;;;;;12.83;11.73;;;;;;;-148.82;100.00;60434.72;4913657;28;20740;-67
2022/11/15 04:39:44;;;;;;;12.87;11.70;;;;;;;-148.82;100.00;60434.72;4887986;28;20475;-70
2022/11/15 04:42:12;;;;;;;14.13;12.73;;;;;;;-148.82;100.00;60434.72;4912980;28;20307;-70
2022/11/15 04:44:40;;;;;;;13.00;11.80;;;;;;;-148.82;100.00;60434.72;4883595;28;20303;-70
2022/11/15 04:47:08;;;;;;;13.27;12.07;;;;;;;-148.82;100.00;60434.72;4891355;28;20241;-68
2022/11/15 04:49:37;;;;;;;13.40;12.07;;;;;;;-148.82;100.00;60434.72;4910007;28;20293;-69
2022/11/15 04:52:05;;;;;;;14.03;12.30;;;;;;;-148.82;100.00;60434.72;4913273;28;20211;-69
2022/11/15 04:54:35;;;;;;;14.27;12.87;;;;;;;-148.82;100.00;60434.72;4860194;28;21882;-68
2022/11/15 04:57:03;;;;;;;16.93;13.63;;;;;;;-148.82;100.00;60434.72;4911074;28;20483;-68
2022/11/15 04:59:31;;;;;;;17.33;13.77;;;;;;;-148.82;100.00;60434.72;4949052;28;20215;-67
2022/11/15 05:01:59;;;;;;;16.27;14.67;;;;;;;-148.82;100.00;60434.72;5011017;28;20226;-67
2022/11/15 05:04:26;;;;;;;16.73;14.53;;;;;;;-148.82;100.00;60434.72;5007405;28;20250;-67
2022/11/15 05:06:54;;;;;;;15.47;13.97;;;;;;;-148.82;100.00;60434.72;5011052;28;20566;-67
2022/11/15 05:09:23;;;;;;;16.07;14.33;;;;;;;-148.82;100.00;60434.72;4960769;28;20349;-67
2022/11/15 05:11:52;;;;;;;14.90;13.30;;;;;;;-148.82;100.00;60434.72;5010396;28;20211;-68
2022/11/15 05:14:21;;;;;;;17.40;13.77;;;;;;;-148.82;100.00;60434.72;5001778;28;20333;-69
2022/11/15 05:16:49;;;;;;;14.50;13.00;;;;;;;-148.82;100.00;60434.72;5002810;28;20199;-69
2022/11/15 05:19:18;;;;;;;32.43;13.37;;;;;;;-148.82;100.00;60434.72;5011633;28;20211;-67
2022/11/15 05:21:46;;;;;;;16.63;12.83;;;;;;;-148.82;100.00;60434.72;5011021;28;20834;-67
2022/11/15 05:24:14;;;;;;;12.83;11.53;;;;;;;-148.82;100.00;60434.72;4976936;28;22236;-67
2022/11/15 05:26:42;;;;;;;24.97;13.40;;;;;;;-148.82;100.00;60434.72;5009564;28;20227;-67
2022/11/15 05:29:12;;;;;;;16.17;12.90;;;;;;;-148.82;100.00;60434.72;5013261;28;20207;-67
2022/11/15 05:31:41;;;;;;;15.70;13.77;;;;;;;-148.82;100.00;60434.72;4985678;28;20207;-69
2022/11/15 05:34:09;;;;;;;25.37;13.03;;;;;;;-148.82;100.00;60434.72;5012445;28;20203;-69
2022/11/15 05:36:39;;;;;;;74.67;14.83;;;;;;;-148.82;100.00;60434.72;5008319;28;20274;-68
2022/11/15 05:39:08;;;;;;;15.43;13.83;;;;;;;-148.82;100.00;60434.72;4974015;28;20214;-69
2022/11/15 05:41:38;;;;;;;14.63;12.43;;;;;;;-148.82;100.00;60434.72;5008962;28;22430;-68
2022/11/15 05:44:09;;;;;;;22.30;13.33;;;;;;;-148.82;100.00;60434.72;4950624;28;20322;-68
2022/11/15 05:46:39;;;;;;;15.27;12.07;;;;;;;-148.82;100.00;60434.72;5008503;28;20230;-69
2022/11/15 05:49:09;;;;;;;14.20;12.77;;;;;;;-148.82;100.00;60434.72;4986624;28;21044;-69
2022/11/15 05:51:38;;;;;;;13.93;12.67;;;;;;;-148.82;100.00;60434.72;5009470;28;20210;-69
2022/11/15 05:54:06;;;;;;;14.57;13.30;;;;;;;-148.82;100.00;60434.72;4999749;28;20448;-68
2022/11/15 05:56:34;;;;;;;14.23;12.73;;;;;;;-148.82;100.00;60434.72;5009862;28;20214;-68
2022/11/15 05:59:03;;;;;;;17.93;14.57;;;;;;;-148.82;100.00;60434.72;4979008;28;20207;-68
2022/11/15 06:01:31;;;;;;;30.20;16.67;;;;;;;-148.82;100.00;60434.72;5008374;28;21131;-69
2022/11/15 06:04:01;;;;;;;15.83;13.53;;;;;;;-148.82;100.00;60434.72;5007865;28;20565;-68
2022/11/15 06:06:29;;;;;;;15.87;12.13;;;;;;;-148.82;100.00;60434.72;5008786;28;20816;-68
2022/11/15 06:08:57;;;;;;;22.17;12.43;;;;;;;-148.82;100.00;60434.72;5006890;28;20410;-68
2022/11/15 06:11:25;;;;;;;13.83;12.60;;;;;;;-148.82;100.00;60434.72;4976645;28;20235;-67
2022/11/15 06:13:54;;;;;;;13.43;12.33;;;;;;;-148.82;100.00;60434.72;4960507;28;20512;-68
2022/11/15 06:16:22;;;;;;;13.93;12.57;;;;;;;-148.82;100.00;60434.72;5006282;28;20211;-67
2022/11/15 06:18:50;;;;;;;20.80;15.23;;;;;;;-148.82;100.00;60434.72;5009773;28;20802;-70
2022/11/15 06:21:20;;;;;;;13.60;12.37;;;;;;;-148.82;100.00;60434.72;5008072;28;20226;-67
2022/11/15 06:23:48;;;;;;;14.40;11.87;;;;;;;-148.82;100.00;60434.72;5009054;28;20214;-67
2022/11/15 06:26:16;;;;;;;14.30;12.50;;;;;;;-148.82;100.00;60434.72;5007933;28;20214;-69
2022/11/15 06:28:44;;;;;;;13.30;12.10;;;;;;;-148.82;100.00;60434.72;4961908;28;21290;-69
2022/11/15 06:31:13;;;;;;;12.37;11.13;;;;;;;-148.82;100.00;60434.72;5008046;28;20219;-69
2022/11/15 06:33:41;;;;;;;15.23;13.77;;;;;;;-148.82;100.00;60434.72;5006538;28;20389;-69
2022/11/15 06:36:13;;;;;;;19.97;17.77;;;;;;;-148.82;100.00;60434.72;5010239;28;20718;-68
2022/11/15 06:38:46;;;;;;;27.50;18.97;;;;;;;-148.82;100.00;60434.72;5007639;28;20400;-70
2022/11/15 06:41:16;;;;;;;22.60;17.87;;;;;;;-148.82;100.00;60434.72;5008224;28;20435;-69
2022/11/15 06:43:44;;;;;;;24.00;16.87;;;;;;;-148.82;100.00;60434.72;5007785;28;20518;-69
2022/11/15 06:46:12;;;;;;;27.70;20.00;;;;;;;-148.82;100.00;60434.72;4960153;28;20395;-67
2022/11/15 06:48:41;;;;;;;23.63;15.10;;;;;;;-148.82;100.00;60434.72;5008340;28;20833;-68
2022/11/15 06:51:09;;;;;;;13.17;11.77;;;;;;;-148.82;100.00;60434.72;5013067;28;20218;-68
2022/11/15 06:53:37;;;;;;;21.27;14.63;;;;;;;-148.82;100.00;60434.72;5011869;28;20223;-67
2022/11/15 06:56:08;;;;;;;19.17;17.20;;;;;;;-148.82;100.00;60434.72;5013006;28;20899;-70
2022/11/15 06:58:37;;;;;;;23.13;15.03;;;;;;;-148.82;100.00;60434.72;5011353;28;20206;-70
2022/11/15 07:01:07;;;;;;;15.10;13.50;;;;;;;-148.82;100.00;60434.72;4969354;28;20485;-70
2022/11/15 07:03:35;;;;;;;17.60;14.83;;;;;;;-148.82;100.00;60434.72;5008597;28;20199;-69
2022/11/15 07:06:04;;;;;;;20.87;18.87;;;;;;;-148.82;100.00;60434.72;5014069;28;20206;-68
2022/11/15 07:08:35;;;;;;;25.07;20.17;;;;;;;-148.82;100.00;60434.72;5009669;28;21160;-67
2022/11/15 07:11:05;;;;;;;25.40;20.67;;;;;;;-148.82;100.00;60434.72;5012870;28;20223;-68
2022/11/15 07:13:35;;;;;;;22.30;19.93;;;;;;;-148.82;100.00;60434.72;5009548;28;20207;-68
2022/11/15 07:16:05;;;;;;;21.63;15.43;;;;;;;-148.82;100.00;60434.72;4963748;28;20218;-68
2022/11/15 07:18:34;;;;;;;25.97;16.93;;;;;;;-148.82;100.00;60434.72;5007857;28;20513;-69
2022/11/15 07:21:03;;;;;;;35.63;17.03;;;;;;;-148.82;100.00;60434.72;5013308;28;20331;-67
2022/11/15 07:23:32;;;;;;;20.27;15.67;;;;;;;-148.82;100.00;60434.72;5008399;28;20370;-68
2022/11/15 07:26:01;;;;;;;17.77;14.47;;;;;;;-148.82;100.00;60434.72;5013316;28;20210;-68
2022/11/15 07:28:29;;;;;;;18.20;15.27;;;;;;;-148.82;100.00;60434.72;5007765;28;20227;-67
2022/11/15 07:30:59;;;;;;;43.93;16.63;;;;;;;-148.82;100.00;60434.72;4982650;28;20731;-69
2022/11/15 07:33:27;;;;;;;34.77;16.07;;;;;;;-148.82;100.00;60434.72;5013392;28;20207;-68
2022/11/15 07:36:01;;;;;;;41.77;18.50;;;;;;;8.92;100.00;97068.69;5013172;28;20199;-70
2022/11/15 07:38:30;;;;;;;20.27;14.20;;;;;;;-0.08;100.00;96834.97;4998526;28;20974;-68
2022/11/15 07:40:58;;;;;;;52.23;15.17;;;;;;;-0.06;100.00;96840.03;5011082;28;20219;-70
2022/11/15 07:43:27;;;;;;;25.57;14.53;;;;;;;0.02;100.00;96836.81;5014506;28;20206;-70
2022/11/15 07:45:56;;;;;;;15.40;13.13;;;;;;;0.01;100.00;96843.81;4976416;28;20331;-69
2022/11/15 07:48:28;;;;;;;15.73;14.13;;;;;;;-148.82;100.00;60434.72;5014500;28;21239;-70
2022/11/15 07:51:13;;;;;;;16.97;13.57;;;;;;;-148.82;100.00;60434.72;4978128;28;20250;-69
2022/11/15 07:53:41;;;;;;;48.00;16.07;;;;;;;-148.82;100.00;60434.72;5012332;28;20213;-69
2022/11/15 07:56:10;;;;;;;16.00;13.43;;;;;;;-148.82;100.00;60434.72;4996392;28;20207;-70
2022/11/15 07:58:39;;;;;;;15.67;12.57;;;;;;;-148.82;100.00;60434.72;5015346;28;20207;-69
2022/11/15 08:01:09;;;;;;;17.80;12.53;;;;;;;-148.82;100.00;60434.72;5012285;28;20216;-70
2022/11/15 08:03:38;;;;;;;15.50;13.03;;;;;;;-148.82;100.00;60434.72;4997565;28;20215;-70
2022/11/15 08:06:07;;;;;;;14.20;12.70;;;;;;;-148.82;100.00;60434.72;4982538;28;21681;-69
2022/11/15 08:08:35;;;;;;;13.60;12.37;;;;;;;-148.82;100.00;60434.72;5015084;28;20223;-70
2022/11/15 08:11:03;;;;;;;13.47;12.33;;;;;;;-148.82;100.00;60434.72;5015696;28;20377;-70
2022/11/15 08:13:32;;;;;;;13.70;12.50;;;;;;;-148.82;100.00;60434.72;5015975;28;20704;-68
2022/11/15 08:16:00;;;;;;;14.93;13.57;;;;;;;-148.82;100.00;60434.72;5014031;28;20301;-69
2022/11/15 08:18:28;;;;;;;12.67;11.57;;;;;;;-148.82;100.00;60434.72;4997049;28;20203;-70
2022/11/15 08:21:01;;;;;;;12.80;11.70;;;;;;;-148.82;100.00;60434.72;4980705;28;20231;-69
2022/11/15 08:23:29;;;;;;;13.50;12.20;;;;;;;-148.82;100.00;60434.72;5013759;28;20211;-69
2022/11/15 08:26:02;;;;;;;15.73;14.03;;;;;;;-148.82;100.00;60434.72;5014621;28;20211;-68
2022/11/15 08:28:31;;;;;;;14.17;12.83;;;;;;;-148.82;100.00;60434.72;5016746;28;20226;-67
2022/11/15 08:30:59;;;;;;;13.37;12.17;;;;;;;-148.82;100.00;60434.72;5014706;28;20258;-69
2022/11/15 08:33:28;;;;;;;12.07;11.00;;;;;;;-148.82;100.00;60434.72;4995939;28;20214;-70
2022/11/15 08:35:58;;;;;;;12.83;11.67;;;;;;;-148.82;100.00;60434.72;4984281;28;20207;-67
2022/11/15 08:38:30;;;;;;;13.30;12.10;;;;;;;-148.82;100.00;60434.72;5016677;28;20208;-68
2022/11/15 08:41:03;;;;;;;13.17;12.07;;;;;;;-148.82;100.00;60434.72;5012628;28;20230;-69
2022/11/15 08:43:31;;;;;;;13.77;12.63;;;;;;;-148.82;100.00;60434.72;5012090;28;20211;-68
2022/11/15 08:46:00;;;;;;;17.13;15.57;;;;;;;-148.82;100.00;60434.72;5010201;28;20240;-69
2022/11/15 08:48:28;;;;;;;14.30;12.97;;;;;;;-148.82;100.00;60434.72;5013829;28;20231;-68
2022/11/15 08:50:57;;;;;;;13.60;12.10;;;;;;;-148.82;100.00;60434.72;4988020;28;20235;-67
2022/11/15 08:53:25;;;;;;;13.93;12.70;;;;;;;-148.82;100.00;60434.72;4966847;28;20226;-67
2022/11/15 08:55:54;;;;;;;14.43;13.03;;;;;;;-148.82;100.00;60434.72;5008076;28;20203;-69
2022/11/15 08:58:23;;;;;;;17.03;14.80;;;;;;;-148.82;100.00;60434.72;5013673;28;20624;-70
2022/11/15 09:00:51;;;;;;;15.33;13.90;;;;;;;-148.82;100.00;60434.72;5011329;28;20309;-69
2022/11/15 09:03:19;;;;;;;18.80;14.00;;;;;;;-148.82;100.00;60434.72;5009950;28;20265;-66
2022/11/15 09:05:47;;;;;;;16.87;13.97;;;;;;;-148.82;100.00;60434.72;4989905;28;20199;-69
2022/11/15 09:08:15;;;;;;;14.60;13.20;;;;;;;-148.82;100.00;60434.72;4966816;28;20467;-68
2022/11/15 09:11:05;;;;;;;13.97;12.57;;;;;;;-148.82;100.00;60434.72;5009605;28;20227;-68
2022/11/15 09:13:34;;;;;;;13.30;12.10;;;;;;;-148.82;100.00;60434.72;5009398;28;20904;-68
2022/11/15 09:16:02;;;;;;;13.30;12.20;;;;;;;-148.82;100.00;60434.72;5008762;28;20203;-68
2022/11/15 09:18:31;;;;;;;13.10;12.00;;;;;;;-148.82;100.00;60434.72;5011900;28;20199;-68
2022/11/15 09:21:02;;;;;;;12.57;11.53;;;;;;;-148.82;100.00;60434.72;4983467;28;20230;-67
2022/11/15 09:23:30;;;;;;;12.47;11.37;;;;;;;-148.82;100.00;60434.72;4966260;28;20219;-69
2022/11/15 09:26:02;;;;;;;12.67;11.57;;;;;;;-148.82;100.00;60434.72;5007443;28;20200;-68
2022/11/15 09:28:33;;;;;;;11.10;10.20;;;;;;;-148.82;100.00;60434.72;5010813;28;20325;-68
2022/11/15 09:31:04;;;;;;;11.93;10.93;;;;;;;-148.82;100.00;60434.72;5007658;28;20223;-67
2022/11/15 09:33:32;;;;;;;12.67;11.47;;;;;;;-148.82;100.00;60434.72;5009743;28;20414;-69
2022/11/15 09:36:02;;;;;;;13.27;12.10;;;;;;;-148.82;100.00;60434.72;4983758;28;20194;-70
2022/11/15 09:38:30;;;;;;;14.03;11.27;;;;;;;-148.82;100.00;60434.72;4967171;28;20210;-69
2022/11/15 09:41:15;;;;;;;15.37;14.07;;;;;;;-148.82;100.00;60434.72;5006404;28;20368;-71
2022/11/15 09:43:51;;;;;;;11.47;10.47;;;;;;;-148.82;100.00;60434.72;5009239;28;20638;-69
2022/11/15 09:46:27;;;;;;;12.10;11.10;;;;;;;-148.82;100.00;60434.72;5009705;28;20199;-70
2022/11/15 09:49:02;;;;;;;11.83;10.83;;;;;;;-148.82;100.00;60434.72;5007333;28;20227;-70
2022/11/15 09:51:32;;;;;;;9.93;9.23;;;;;;;-148.82;100.00;60434.72;5009849;28;20357;-70
2022/11/15 09:54:04;;;;;;;11.13;10.23;;;;;;;-148.82;100.00;60434.72;4940146;28;20411;-70
2022/11/15 09:56:53;;;;;;;12.60;11.60;;;;;;;-148.82;100.00;60434.72;5009569;28;20204;-70
2022/11/15 09:59:38;;;;;;;11.93;10.93;;;;;;;-148.82;100.00;60434.72;4959015;28;20611;-69
2022/11/15 10:02:14;;;;;;;10.93;10.03;;;;;;;-148.82;100.00;60434.72;5009733;28;20210;-68
2022/11/15 10:04:42;;;;;;;11.00;10.20;;;;;;;-148.82;100.00;60434.72;5009650;28;20202;-70
2022/11/15 10:07:16;;;;;;;11.13;10.23;;;;;;;-148.82;100.00;60434.72;5007718;28;20226;-68
2022/11/15 10:09:47;;;;;;;11.03;10.13;;;;;;;-148.82;100.00;60434.72;5009375;28;20803;-68
2022/11/15 10:12:17;;;;;;;9.70;9.00;;;;;;;-148.82;100.00;60434.72;4981597;28;20880;-67
2022/11/15 10:14:48;;;;;;;11.13;10.30;;;;;;;-148.82;100.00;60434.72;5002560;28;20215;-70
2022/11/15 10:17:38;;;;;;;14.53;11.87;;;;;;;-148.82;100.00;60434.72;5006962;28;20246;-69
2022/11/15 10:20:13;;;;;;;13.73;12.63;;;;;;;-148.82;100.00;60434.72;5010668;28;20261;-69
2022/11/15 10:22:46;;;;;;;12.70;11.67;;;;;;;-148.82;100.00;60434.72;5009985;28;20835;-68
2022/11/15 10:25:19;;;;;;;12.10;11.20;;;;;;;-148.82;100.00;60434.72;5007047;28;20281;-70
2022/11/15 10:27:54;;;;;;;11.10;10.20;;;;;;;-148.82;100.00;60434.72;5011163;28;20203;-70
2022/11/15 10:30:24;;;;;;;10.07;9.23;;;;;;;-148.82;100.00;60434.72;4959595;28;22000;-70
2022/11/15 10:32:53;;;;;;;10.67;9.77;;;;;;;-148.82;100.00;60434.72;5010218;28;20412;-70
2022/11/15 10:35:26;;;;;;;11.00;10.17;;;;;;;-148.82;100.00;60434.72;5006404;28;20582;-67
2022/11/15 10:38:06;;;;;;;10.33;9.50;;;;;;;-148.82;100.00;60434.72;5009877;28;20226;-70
2022/11/15 10:40:34;;;;;;;10.93;10.03;;;;;;;-148.82;100.00;60434.72;5007746;28;20306;-70
2022/11/15 10:43:14;;;;;;;11.43;10.57;;;;;;;-148.82;100.00;60434.72;5007581;28;20207;-69
2022/11/15 10:45:44;;;;;;;10.77;9.97;;;;;;;-148.82;100.00;60434.72;4994880;28;20831;-71
2022/11/15 10:48:24;;;;;;;13.03;11.93;;;;;;;-148.82;100.00;60434.72;5007399;28;20195;-70
2022/11/15 10:50:54;;;;;;;11.33;10.40;;;;;;;-148.82;100.00;60434.72;5009822;28;20241;-70
2022/11/15 10:53:25;;;;;;;10.50;9.70;;;;;;;-148.82;100.00;60434.72;5005351;28;20465;-69
2022/11/15 10:55:55;;;;;;;11.67;10.73;;;;;;;-148.82;100.00;60434.72;5010098;28;20199;-70
2022/11/15 10:58:32;;;;;;;10.30;9.47;;;;;;;-148.82;100.00;60434.72;5005805;28;20195;-69
2022/11/15 11:01:12;;;;;;;11.37;10.47;;;;;;;-148.82;100.00;60434.72;4965103;28;20510;-68
2022/11/15 11:03:42;;;;;;;10.50;9.70;;;;;;;-148.82;100.00;60434.72;5008281;28;20425;-70
2022/11/15 11:06:13;;;;;;;11.13;10.10;;;;;;;-148.82;100.00;60434.72;5006798;28;20489;-69
2022/11/15 11:08:41;;;;;;;11.37;10.37;;;;;;;-148.82;100.00;60434.72;5008482;28;20191;-69
2022/11/15 11:11:10;;;;;;;12.20;11.23;;;;;;;-148.82;100.00;60434.72;5007602;28;20744;-69
2022/11/15 11:13:39;;;;;;;11.30;10.40;;;;;;;-148.82;100.00;60434.72;5008126;28;20203;-69
2022/11/15 11:16:45;;;;;;;12.00;10.80;;;;;;;-148.82;100.00;60434.72;4965954;28;20211;-69
2022/11/15 11:19:32;;;;;;;11.20;10.20;;;;;;;-148.82;100.00;60434.72;4927961;28;20237;-70
2022/11/15 11:22:10;;;;;;;10.83;9.83;;;;;;;-148.82;100.00;60434.72;4930661;28;20214;-70
2022/11/15 11:24:45;;;;;;;10.50;9.60;;;;;;;-148.82;100.00;60434.72;4928332;28;21001;-71
2022/11/15 11:27:30;;;;;;;10.40;9.53;;;;;;;-148.82;100.00;60434.72;4926851;28;20213;-69